sensor_id;sensor_type;location;lat;lon;timestamp;temperature;humidity
71206;SHT31;58935;54.498;18.544;2024-03-23T00:54:04;7.80;81.91
71206;SHT31;58935;54.498;18.544;2024-03-23T00:56:30;7.80;81.90
71206;SHT31;58935;54.498;18.544;2024-03-23T00:58:55;7.80;81.89
71206;SHT31;58935;54.498;18.544;2024-03-23T01:01:20;7.78;81.86
71206;SHT31;58935;54.498;18.544;2024-03-23T01:03:48;7.76;81.87
71206;SHT31;58935;54.498;18.544;2024-03-23T01:06:13;7.75;81.86
71206;SHT31;58935;54.498;18.544;2024-03-23T01:08:39;7.73;81.84
71206;SHT31;58935;54.498;18.544;2024-03-23T01:11:04;7.72;81.90
71206;SHT31;58935;54.498;18.544;2024-03-23T01:13:29;7.71;81.91
71206;SHT31;58935;54.498;18.544;2024-03-23T01:15:56;7.70;81.87
71206;SHT31;58935;54.498;18.544;2024-03-23T01:18:22;7.68;81.80
71206;SHT31;58935;54.498;18.544;2024-03-23T01:20:49;7.68;81.80
71206;SHT31;58935;54.498;18.544;2024-03-23T01:23:15;7.66;81.70
71206;SHT31;58935;54.498;18.544;2024-03-23T01:25:42;7.65;81.70
71206;SHT31;58935;54.498;18.544;2024-03-23T01:28:08;7.64;81.72
71206;SHT31;58935;54.498;18.544;2024-03-23T01:30:34;7.62;81.72
71206;SHT31;58935;54.498;18.544;2024-03-23T01:33:00;7.61;81.80
71206;SHT31;58935;54.498;18.544;2024-03-23T01:35:28;7.60;81.80
71206;SHT31;58935;54.498;18.544;2024-03-23T01:37:54;7.58;81.84
71206;SHT31;58935;54.498;18.544;2024-03-23T01:40:20;7.57;81.90
71206;SHT31;58935;54.498;18.544;2024-03-23T01:45:20;7.53;82.08
71206;SHT31;58935;54.498;18.544;2024-03-23T01:47:45;7.51;82.10
71206;SHT31;58935;54.498;18.544;2024-03-23T01:50:11;7.49;82.28
71206;SHT31;58935;54.498;18.544;2024-03-23T01:52:36;7.47;82.30
71206;SHT31;58935;54.498;18.544;2024-03-23T01:55:01;7.45;82.44
71206;SHT31;58935;54.498;18.544;2024-03-23T01:57:27;7.43;82.52
71206;SHT31;58935;54.498;18.544;2024-03-23T01:59:52;7.42;82.60
71206;SHT31;58935;54.498;18.544;2024-03-23T02:02:20;7.41;82.61
71206;SHT31;58935;54.498;18.544;2024-03-23T02:04:48;7.39;82.69
71206;SHT31;58935;54.498;18.544;2024-03-23T02:07:16;7.36;82.75
71206;SHT31;58935;54.498;18.544;2024-03-23T02:09:42;7.34;82.87
71206;SHT31;58935;54.498;18.544;2024-03-23T02:12:08;7.32;82.87
71206;SHT31;58935;54.498;18.544;2024-03-23T02:14:34;7.30;82.88
71206;SHT31;58935;54.498;18.544;2024-03-23T02:17:00;7.29;82.90
71206;SHT31;58935;54.498;18.544;2024-03-23T02:19:25;7.27;82.91
71206;SHT31;58935;54.498;18.544;2024-03-23T02:21:53;7.27;82.90
71206;SHT31;58935;54.498;18.544;2024-03-23T02:24:18;7.26;82.91
71206;SHT31;58935;54.498;18.544;2024-03-23T02:26:43;7.25;82.98
71206;SHT31;58935;54.498;18.544;2024-03-23T02:29:09;7.25;83.00
71206;SHT31;58935;54.498;18.544;2024-03-23T02:31:35;7.24;83.09
71206;SHT31;58935;54.498;18.544;2024-03-23T02:34:01;7.24;83.05
71206;SHT31;58935;54.498;18.544;2024-03-23T02:36:26;7.24;83.02
71206;SHT31;58935;54.498;18.544;2024-03-23T02:38:52;7.24;83.02
71206;SHT31;58935;54.498;18.544;2024-03-23T02:41:17;7.23;83.00
71206;SHT31;58935;54.498;18.544;2024-03-23T02:43:48;7.24;83.00
71206;SHT31;58935;54.498;18.544;2024-03-23T02:46:15;7.22;83.00
71206;SHT31;58935;54.498;18.544;2024-03-23T02:48:40;7.21;83.00
71206;SHT31;58935;54.498;18.544;2024-03-23T02:51:06;7.19;83.00
71206;SHT31;58935;54.498;18.544;2024-03-23T02:53:31;7.18;83.01
71206;SHT31;58935;54.498;18.544;2024-03-23T02:55:58;7.17;83.08
71206;SHT31;58935;54.498;18.544;2024-03-23T02:58:24;7.17;83.10
71206;SHT31;58935;54.498;18.544;2024-03-23T03:00:49;7.16;83.03
71206;SHT31;58935;54.498;18.544;2024-03-23T03:03:15;7.16;83.04
71206;SHT31;58935;54.498;18.544;2024-03-23T03:05:42;7.17;83.08
71206;SHT31;58935;54.498;18.544;2024-03-23T03:08:08;7.18;83.01
71206;SHT31;58935;54.498;18.544;2024-03-23T03:10:33;7.18;83.00
71206;SHT31;58935;54.498;18.544;2024-03-23T03:13:01;7.18;83.01
71206;SHT31;58935;54.498;18.544;2024-03-23T03:15:27;7.18;83.01
71206;SHT31;58935;54.498;18.544;2024-03-23T03:17:52;7.18;83.00
71206;SHT31;58935;54.498;18.544;2024-03-23T03:20:18;7.17;82.93
71206;SHT31;58935;54.498;18.544;2024-03-23T03:22:43;7.15;82.93
71206;SHT31;58935;54.498;18.544;2024-03-23T03:25:09;7.14;83.00
71206;SHT31;58935;54.498;18.544;2024-03-23T03:27:34;7.14;83.00
71206;SHT31;58935;54.498;18.544;2024-03-23T03:30:00;7.14;83.00
71206;SHT31;58935;54.498;18.544;2024-03-23T03:32:33;7.13;83.00
71206;SHT31;58935;54.498;18.544;2024-03-23T03:34:58;7.13;83.00
71206;SHT31;58935;54.498;18.544;2024-03-23T03:37:24;7.11;83.05
71206;SHT31;58935;54.498;18.544;2024-03-23T03:39:49;7.11;83.03
71206;SHT31;58935;54.498;18.544;2024-03-23T03:42:15;7.11;83.05
71206;SHT31;58935;54.498;18.544;2024-03-23T03:44:48;7.08;83.11
71206;SHT31;58935;54.498;18.544;2024-03-23T03:47:13;7.08;83.18
71206;SHT31;58935;54.498;18.544;2024-03-23T03:49:38;7.07;83.17
71206;SHT31;58935;54.498;18.544;2024-03-23T03:52:04;7.05;83.18
71206;SHT31;58935;54.498;18.544;2024-03-23T03:54:29;7.05;83.22
71206;SHT31;58935;54.498;18.544;2024-03-23T03:56:55;7.04;83.29
71206;SHT31;58935;54.498;18.544;2024-03-23T03:59:20;7.03;83.30
71206;SHT31;58935;54.498;18.544;2024-03-23T04:01:46;7.02;83.35
71206;SHT31;58935;54.498;18.544;2024-03-23T04:04:11;7.02;83.40
71206;SHT31;58935;54.498;18.544;2024-03-23T04:06:37;7.01;83.40
71206;SHT31;58935;54.498;18.544;2024-03-23T04:09:02;7.00;83.44
71206;SHT31;58935;54.498;18.544;2024-03-23T04:11:27;7.00;83.50
71206;SHT31;58935;54.498;18.544;2024-03-23T04:13:53;6.99;83.52
71206;SHT31;58935;54.498;18.544;2024-03-23T04:18:52;7.00;83.52
71206;SHT31;58935;54.498;18.544;2024-03-23T04:21:18;7.01;83.53
71206;SHT31;58935;54.498;18.544;2024-03-23T04:23:43;7.01;83.51
71206;SHT31;58935;54.498;18.544;2024-03-23T04:26:08;7.02;83.53
71206;SHT31;58935;54.498;18.544;2024-03-23T04:28:34;7.03;83.50
71206;SHT31;58935;54.498;18.544;2024-03-23T04:31:03;7.03;83.51
71206;SHT31;58935;54.498;18.544;2024-03-23T04:33:30;7.05;83.52
71206;SHT31;58935;54.498;18.544;2024-03-23T04:35:55;7.05;83.51
71206;SHT31;58935;54.498;18.544;2024-03-23T04:38:21;7.05;83.50
71206;SHT31;58935;54.498;18.544;2024-03-23T04:40:53;7.05;83.49
71206;SHT31;58935;54.498;18.544;2024-03-23T04:43:21;7.05;83.51
71206;SHT31;58935;54.498;18.544;2024-03-23T04:45:46;7.06;83.51
71206;SHT31;58935;54.498;18.544;2024-03-23T04:48:11;7.07;83.50
71206;SHT31;58935;54.498;18.544;2024-03-23T04:50:38;7.07;83.50
71206;SHT31;58935;54.498;18.544;2024-03-23T04:53:03;7.10;83.51
71206;SHT31;58935;54.498;18.544;2024-03-23T04:55:31;7.12;83.43
71206;SHT31;58935;54.498;18.544;2024-03-23T04:57:56;7.11;83.41
71206;SHT31;58935;54.498;18.544;2024-03-23T05:00:22;7.12;83.38
71206;SHT31;58935;54.498;18.544;2024-03-23T05:02:48;7.11;83.39
71206;SHT31;58935;54.498;18.544;2024-03-23T05:05:15;7.11;83.32
71206;SHT31;58935;54.498;18.544;2024-03-23T05:07:43;7.12;83.31
71206;SHT31;58935;54.498;18.544;2024-03-23T05:10:11;7.12;83.37
71206;SHT31;58935;54.498;18.544;2024-03-23T05:12:38;7.13;83.40
71206;SHT31;58935;54.498;18.544;2024-03-23T05:15:04;7.15;83.38
71206;SHT31;58935;54.498;18.544;2024-03-23T05:17:32;7.16;83.40
71206;SHT31;58935;54.498;18.544;2024-03-23T05:19:58;7.19;83.36
71206;SHT31;58935;54.498;18.544;2024-03-23T05:22:23;7.21;83.30
71206;SHT31;58935;54.498;18.544;2024-03-23T05:24:51;7.23;83.27
71206;SHT31;58935;54.498;18.544;2024-03-23T05:27:17;7.25;83.12
71206;SHT31;58935;54.498;18.544;2024-03-23T05:29:42;7.25;83.08
71206;SHT31;58935;54.498;18.544;2024-03-23T05:32:10;7.26;83.08
71206;SHT31;58935;54.498;18.544;2024-03-23T05:34:35;7.26;83.06
71206;SHT31;58935;54.498;18.544;2024-03-23T05:37:01;7.26;82.96
71206;SHT31;58935;54.498;18.544;2024-03-23T05:39:26;7.27;82.93
71206;SHT31;58935;54.498;18.544;2024-03-23T05:41:51;7.28;82.91
71206;SHT31;58935;54.498;18.544;2024-03-23T05:44:17;7.31;82.90
71206;SHT31;58935;54.498;18.544;2024-03-23T05:46:42;7.34;82.80
71206;SHT31;58935;54.498;18.544;2024-03-23T05:49:13;7.36;82.72
71206;SHT31;58935;54.498;18.544;2024-03-23T05:51:43;7.40;82.62
71206;SHT31;58935;54.498;18.544;2024-03-23T05:54:08;7.42;82.47
71206;SHT31;58935;54.498;18.544;2024-03-23T05:56:34;7.45;82.28
71206;SHT31;58935;54.498;18.544;2024-03-23T05:59:00;7.46;82.10
71206;SHT31;58935;54.498;18.544;2024-03-23T06:01:27;7.46;81.86
71206;SHT31;58935;54.498;18.544;2024-03-23T06:03:54;7.47;81.72
71206;SHT31;58935;54.498;18.544;2024-03-23T06:06:19;7.48;81.65
71206;SHT31;58935;54.498;18.544;2024-03-23T06:08:45;7.48;81.51
71206;SHT31;58935;54.498;18.544;2024-03-23T06:11:10;7.51;81.47
71206;SHT31;58935;54.498;18.544;2024-03-23T06:13:38;7.53;81.50
71206;SHT31;58935;54.498;18.544;2024-03-23T06:16:03;7.57;81.43
71206;SHT31;58935;54.498;18.544;2024-03-23T06:18:32;7.59;81.33
71206;SHT31;58935;54.498;18.544;2024-03-23T06:20:59;7.59;81.21
71206;SHT31;58935;54.498;18.544;2024-03-23T06:23:25;7.60;81.13
71206;SHT31;58935;54.498;18.544;2024-03-23T06:25:52;7.62;81.23
71206;SHT31;58935;54.498;18.544;2024-03-23T06:28:18;7.67;81.21
71206;SHT31;58935;54.498;18.544;2024-03-23T06:30:43;7.72;81.03
71206;SHT31;58935;54.498;18.544;2024-03-23T06:33:08;7.76;80.96
71206;SHT31;58935;54.498;18.544;2024-03-23T06:35:34;7.78;80.84
71206;SHT31;58935;54.498;18.544;2024-03-23T06:37:59;7.80;80.73
71206;SHT31;58935;54.498;18.544;2024-03-23T06:40:24;7.82;80.40
71206;SHT31;58935;54.498;18.544;2024-03-23T06:42:50;7.85;80.42
71206;SHT31;58935;54.498;18.544;2024-03-23T06:45:16;7.86;79.98
71206;SHT31;58935;54.498;18.544;2024-03-23T06:47:48;7.87;79.83
71206;SHT31;58935;54.498;18.544;2024-03-23T06:50:14;7.87;79.82
71206;SHT31;58935;54.498;18.544;2024-03-23T06:52:39;7.89;79.59
71206;SHT31;58935;54.498;18.544;2024-03-23T06:55:05;7.89;79.48
71206;SHT31;58935;54.498;18.544;2024-03-23T06:57:33;7.90;79.47
71206;SHT31;58935;54.498;18.544;2024-03-23T06:59:59;7.91;79.46
71206;SHT31;58935;54.498;18.544;2024-03-23T07:02:26;7.91;79.34
71206;SHT31;58935;54.498;18.544;2024-03-23T07:04:52;7.91;79.31
71206;SHT31;58935;54.498;18.544;2024-03-23T07:07:17;7.93;79.22
71206;SHT31;58935;54.498;18.544;2024-03-23T07:09:45;7.93;78.65
71206;SHT31;58935;54.498;18.544;2024-03-23T07:12:10;7.93;78.63
71206;SHT31;58935;54.498;18.544;2024-03-23T07:14:35;7.91;78.60
71206;SHT31;58935;54.498;18.544;2024-03-23T07:17:01;7.91;78.61
71206;SHT31;58935;54.498;18.544;2024-03-23T07:19:26;7.92;78.37
71206;SHT31;58935;54.498;18.544;2024-03-23T07:21:51;7.95;78.37
71206;SHT31;58935;54.498;18.544;2024-03-23T07:24:17;7.98;78.44
71206;SHT31;58935;54.498;18.544;2024-03-23T07:26:42;7.99;77.96
71206;SHT31;58935;54.498;18.544;2024-03-23T07:29:08;8.01;77.76
71206;SHT31;58935;54.498;18.544;2024-03-23T07:31:34;8.05;78.08
71206;SHT31;58935;54.498;18.544;2024-03-23T07:33:59;8.12;78.14
71206;SHT31;58935;54.498;18.544;2024-03-23T07:36:25;8.16;77.91
71206;SHT31;58935;54.498;18.544;2024-03-23T07:38:50;8.20;77.91
71206;SHT31;58935;54.498;18.544;2024-03-23T07:41:17;8.24;78.10
71206;SHT31;58935;54.498;18.544;2024-03-23T07:43:44;8.26;77.67
71206;SHT31;58935;54.498;18.544;2024-03-23T07:46:11;8.22;77.48
71206;SHT31;58935;54.498;18.544;2024-03-23T07:48:37;8.23;77.69
71206;SHT31;58935;54.498;18.544;2024-03-23T07:51:06;8.22;77.64
71206;SHT31;58935;54.498;18.544;2024-03-23T07:53:35;8.20;77.48
71206;SHT31;58935;54.498;18.544;2024-03-23T07:56:05;8.19;77.48
71206;SHT31;58935;54.498;18.544;2024-03-23T07:58:33;8.17;77.47
71206;SHT31;58935;54.498;18.544;2024-03-23T08:03:33;8.22;77.56
71206;SHT31;58935;54.498;18.544;2024-03-23T08:08:31;8.33;77.49
71206;SHT31;58935;54.498;18.544;2024-03-23T08:10:57;8.39;77.34
71206;SHT31;58935;54.498;18.544;2024-03-23T08:13:22;8.43;76.94
71206;SHT31;58935;54.498;18.544;2024-03-23T08:15:47;8.46;76.58
71206;SHT31;58935;54.498;18.544;2024-03-23T08:18:13;8.48;76.56
71206;SHT31;58935;54.498;18.544;2024-03-23T08:20:40;8.54;76.84
71206;SHT31;58935;54.498;18.544;2024-03-23T08:23:06;8.61;76.93
71206;SHT31;58935;54.498;18.544;2024-03-23T08:25:32;8.69;76.66
71206;SHT31;58935;54.498;18.544;2024-03-23T08:27:59;8.76;76.54
71206;SHT31;58935;54.498;18.544;2024-03-23T08:30:24;8.78;75.86
71206;SHT31;58935;54.498;18.544;2024-03-23T08:32:51;8.79;75.74
71206;SHT31;58935;54.498;18.544;2024-03-23T08:35:17;8.79;75.65
71206;SHT31;58935;54.498;18.544;2024-03-23T08:37:42;8.78;75.47
71206;SHT31;58935;54.498;18.544;2024-03-23T08:40:08;8.82;75.64
71206;SHT31;58935;54.498;18.544;2024-03-23T08:42:34;8.88;75.57
71206;SHT31;58935;54.498;18.544;2024-03-23T08:45:00;8.96;75.57
71206;SHT31;58935;54.498;18.544;2024-03-23T08:47:26;9.04;75.37
71206;SHT31;58935;54.498;18.544;2024-03-23T08:49:51;9.11;75.30
71206;SHT31;58935;54.498;18.544;2024-03-23T08:52:17;9.17;75.16
71206;SHT31;58935;54.498;18.544;2024-03-23T08:54:42;9.22;74.74
71206;SHT31;58935;54.498;18.544;2024-03-23T08:57:08;9.22;74.11
71206;SHT31;58935;54.498;18.544;2024-03-23T08:59:34;9.24;74.36
71206;SHT31;58935;54.498;18.544;2024-03-23T09:01:59;9.27;74.11
71206;SHT31;58935;54.498;18.544;2024-03-23T09:04:25;9.27;73.29
71206;SHT31;58935;54.498;18.544;2024-03-23T09:06:51;9.22;72.90
71206;SHT31;58935;54.498;18.544;2024-03-23T09:09:17;9.23;73.21
71206;SHT31;58935;54.498;18.544;2024-03-23T09:11:42;9.21;72.86
71206;SHT31;58935;54.498;18.544;2024-03-23T09:14:08;9.18;73.09
71206;SHT31;58935;54.498;18.544;2024-03-23T09:16:34;9.18;73.34
71206;SHT31;58935;54.498;18.544;2024-03-23T09:19:00;9.21;73.40
71206;SHT31;58935;54.498;18.544;2024-03-23T09:21:26;9.24;73.34
71206;SHT31;58935;54.498;18.544;2024-03-23T09:23:51;9.23;72.61
71206;SHT31;58935;54.498;18.544;2024-03-23T09:26:17;9.24;72.56
71206;SHT31;58935;54.498;18.544;2024-03-23T09:28:44;9.25;72.72
71206;SHT31;58935;54.498;18.544;2024-03-23T09:31:13;9.30;72.84
71206;SHT31;58935;54.498;18.544;2024-03-23T09:33:40;9.36;72.68
71206;SHT31;58935;54.498;18.544;2024-03-23T09:36:06;9.44;72.62
71206;SHT31;58935;54.498;18.544;2024-03-23T09:38:33;9.57;72.17
71206;SHT31;58935;54.498;18.544;2024-03-23T09:40:59;9.63;71.79
71206;SHT31;58935;54.498;18.544;2024-03-23T09:43:34;9.66;71.66
71206;SHT31;58935;54.498;18.544;2024-03-23T09:46:01;9.70;71.58
71206;SHT31;58935;54.498;18.544;2024-03-23T09:48:27;9.71;71.16
71206;SHT31;58935;54.498;18.544;2024-03-23T09:50:53;9.72;71.04
71206;SHT31;58935;54.498;18.544;2024-03-23T09:53:18;9.76;70.97
71206;SHT31;58935;54.498;18.544;2024-03-23T09:55:44;9.79;70.72
71206;SHT31;58935;54.498;18.544;2024-03-23T09:58:12;9.81;70.53
71206;SHT31;58935;54.498;18.544;2024-03-23T10:00:40;9.84;70.09
71206;SHT31;58935;54.498;18.544;2024-03-23T10:03:05;9.85;69.75
71206;SHT31;58935;54.498;18.544;2024-03-23T10:05:31;9.81;69.55
71206;SHT31;58935;54.498;18.544;2024-03-23T10:07:59;9.81;69.96
71206;SHT31;58935;54.498;18.544;2024-03-23T10:10:42;9.81;69.30
71206;SHT31;58935;54.498;18.544;2024-03-23T10:13:11;9.81;69.47
71206;SHT31;58935;54.498;18.544;2024-03-23T10:15:51;9.86;69.53
71206;SHT31;58935;54.498;18.544;2024-03-23T10:18:21;9.97;69.60
71206;SHT31;58935;54.498;18.544;2024-03-23T10:23:22;10.23;69.42
71206;SHT31;58935;54.498;18.544;2024-03-23T10:25:48;10.34;69.19
71206;SHT31;58935;54.498;18.544;2024-03-23T10:28:13;10.41;69.16
71206;SHT31;58935;54.498;18.544;2024-03-23T10:30:38;10.47;68.48
71206;SHT31;58935;54.498;18.544;2024-03-23T10:33:06;10.50;68.34
71206;SHT31;58935;54.498;18.544;2024-03-23T10:35:37;10.55;67.81
71206;SHT31;58935;54.498;18.544;2024-03-23T10:38:04;10.57;66.72
71206;SHT31;58935;54.498;18.544;2024-03-23T10:40:33;10.60;66.17
71206;SHT31;58935;54.498;18.544;2024-03-23T10:43:00;10.60;65.79
71206;SHT31;58935;54.498;18.544;2024-03-23T10:45:29;10.56;65.07
71206;SHT31;58935;54.498;18.544;2024-03-23T10:47:56;10.52;65.39
71206;SHT31;58935;54.498;18.544;2024-03-23T10:50:21;10.51;64.89
71206;SHT31;58935;54.498;18.544;2024-03-23T10:52:48;10.48;64.57
71206;SHT31;58935;54.498;18.544;2024-03-23T10:55:17;10.46;64.84
71206;SHT31;58935;54.498;18.544;2024-03-23T11:00:19;10.46;64.90
71206;SHT31;58935;54.498;18.544;2024-03-23T11:02:48;10.48;64.58
71206;SHT31;58935;54.498;18.544;2024-03-23T11:07:50;10.43;63.89
71206;SHT31;58935;54.498;18.544;2024-03-23T11:12:51;10.38;63.97
71206;SHT31;58935;54.498;18.544;2024-03-23T11:15:18;10.33;64.16
71206;SHT31;58935;54.498;18.544;2024-03-23T11:18:01;10.29;64.10
71206;SHT31;58935;54.498;18.544;2024-03-23T11:20:31;10.16;64.28
71206;SHT31;58935;54.498;18.544;2024-03-23T11:22:59;10.05;65.12
71206;SHT31;58935;54.498;18.544;2024-03-23T11:25:25;9.90;66.44
71206;SHT31;58935;54.498;18.544;2024-03-23T11:27:53;9.72;67.40
71206;SHT31;58935;54.498;18.544;2024-03-23T11:30:24;9.65;68.11
71206;SHT31;58935;54.498;18.544;2024-03-23T11:32:55;9.67;66.89
71206;SHT31;58935;54.498;18.544;2024-03-23T11:35:25;9.73;66.16
71206;SHT31;58935;54.498;18.544;2024-03-23T11:40:35;9.88;65.89
71206;SHT31;58935;54.498;18.544;2024-03-23T11:43:04;9.93;67.21
71206;SHT31;58935;54.498;18.544;2024-03-23T11:45:33;9.91;68.27
71206;SHT31;58935;54.498;18.544;2024-03-23T11:48:07;9.84;68.73
71206;SHT31;58935;54.498;18.544;2024-03-23T11:50:37;9.73;68.46
71206;SHT31;58935;54.498;18.544;2024-03-23T11:53:11;9.65;69.10
71206;SHT31;58935;54.498;18.544;2024-03-23T11:55:42;9.54;69.64
71206;SHT31;58935;54.498;18.544;2024-03-23T11:58:11;9.47;70.32
71206;SHT31;58935;54.498;18.544;2024-03-23T12:00:37;9.41;70.68
71206;SHT31;58935;54.498;18.544;2024-03-23T12:03:04;9.36;70.64
71206;SHT31;58935;54.498;18.544;2024-03-23T12:05:32;9.34;71.07
71206;SHT31;58935;54.498;18.544;2024-03-23T12:10:49;9.46;71.19
71206;SHT31;58935;54.498;18.544;2024-03-23T12:13:21;9.52;70.65
71206;SHT31;58935;54.498;18.544;2024-03-23T12:15:49;9.55;70.68
71206;SHT31;58935;54.498;18.544;2024-03-23T12:18:23;9.60;70.79
71206;SHT31;58935;54.498;18.544;2024-03-23T12:20:49;9.66;71.01
71206;SHT31;58935;54.498;18.544;2024-03-23T12:23:15;9.69;70.35
71206;SHT31;58935;54.498;18.544;2024-03-23T12:25:40;9.67;70.18
71206;SHT31;58935;54.498;18.544;2024-03-23T12:28:06;9.67;70.13
71206;SHT31;58935;54.498;18.544;2024-03-23T12:30:35;9.66;70.34
71206;SHT31;58935;54.498;18.544;2024-03-23T12:33:04;9.55;71.02
71206;SHT31;58935;54.498;18.544;2024-03-23T12:35:31;9.39;71.52
71206;SHT31;58935;54.498;18.544;2024-03-23T12:37:59;9.28;71.84
71206;SHT31;58935;54.498;18.544;2024-03-23T12:40:25;9.15;72.24
71206;SHT31;58935;54.498;18.544;2024-03-23T12:42:51;9.04;72.76
71206;SHT31;58935;54.498;18.544;2024-03-23T12:45:17;8.87;73.02
71206;SHT31;58935;54.498;18.544;2024-03-23T12:47:43;8.69;73.45
71206;SHT31;58935;54.498;18.544;2024-03-23T12:50:08;8.52;73.73
71206;SHT31;58935;54.498;18.544;2024-03-23T12:52:35;8.38;74.26
71206;SHT31;58935;54.498;18.544;2024-03-23T12:55:01;8.27;74.64
71206;SHT31;58935;54.498;18.544;2024-03-23T12:57:29;8.14;74.73
71206;SHT31;58935;54.498;18.544;2024-03-23T12:59:54;8.05;75.16
71206;SHT31;58935;54.498;18.544;2024-03-23T13:02:21;7.98;75.37
71206;SHT31;58935;54.498;18.544;2024-03-23T13:04:50;7.91;75.54
71206;SHT31;58935;54.498;18.544;2024-03-23T13:07:18;7.78;75.93
71206;SHT31;58935;54.498;18.544;2024-03-23T13:09:46;7.67;76.35
71206;SHT31;58935;54.498;18.544;2024-03-23T13:12:14;7.57;76.92
71206;SHT31;58935;54.498;18.544;2024-03-23T13:14:42;7.53;77.12
71206;SHT31;58935;54.498;18.544;2024-03-23T13:17:07;7.50;77.33
71206;SHT31;58935;54.498;18.544;2024-03-23T13:19:33;7.50;77.43
71206;SHT31;58935;54.498;18.544;2024-03-23T13:21:59;7.51;77.39
71206;SHT31;58935;54.498;18.544;2024-03-23T13:24:26;7.52;77.52
71206;SHT31;58935;54.498;18.544;2024-03-23T13:26:53;7.55;77.34
71206;SHT31;58935;54.498;18.544;2024-03-23T13:29:20;7.56;77.29
71206;SHT31;58935;54.498;18.544;2024-03-23T13:31:47;7.59;77.30
71206;SHT31;58935;54.498;18.544;2024-03-23T13:34:16;7.63;77.22
71206;SHT31;58935;54.498;18.544;2024-03-23T13:36:44;7.66;77.22
71206;SHT31;58935;54.498;18.544;2024-03-23T13:39:13;7.73;77.27
71206;SHT31;58935;54.498;18.544;2024-03-23T13:41:41;7.77;76.99
71206;SHT31;58935;54.498;18.544;2024-03-23T13:44:09;7.76;76.81
71206;SHT31;58935;54.498;18.544;2024-03-23T13:46:40;7.69;76.51
71206;SHT31;58935;54.498;18.544;2024-03-23T13:51:52;7.44;76.79
71206;SHT31;58935;54.498;18.544;2024-03-23T13:54:19;7.32;77.09
71206;SHT31;58935;54.498;18.544;2024-03-23T13:56:47;7.22;77.34
71206;SHT31;58935;54.498;18.544;2024-03-23T13:59:20;7.15;77.55
71206;SHT31;58935;54.498;18.544;2024-03-23T14:01:48;7.15;77.79
71206;SHT31;58935;54.498;18.544;2024-03-23T14:04:14;7.14;77.75
71206;SHT31;58935;54.498;18.544;2024-03-23T14:06:41;7.14;77.88
71206;SHT31;58935;54.498;18.544;2024-03-23T14:09:07;7.15;78.06
71206;SHT31;58935;54.498;18.544;2024-03-23T14:11:34;7.13;78.09
71206;SHT31;58935;54.498;18.544;2024-03-23T14:14:02;7.07;78.10
71206;SHT31;58935;54.498;18.544;2024-03-23T14:16:29;7.04;78.35
71206;SHT31;58935;54.498;18.544;2024-03-23T14:18:55;6.99;78.59
71206;SHT31;58935;54.498;18.544;2024-03-23T14:21:21;6.94;78.83
71206;SHT31;58935;54.498;18.544;2024-03-23T14:23:46;6.93;79.05
71206;SHT31;58935;54.498;18.544;2024-03-23T14:26:12;6.93;79.02
71206;SHT31;58935;54.498;18.544;2024-03-23T14:28:37;6.91;78.98
71206;SHT31;58935;54.498;18.544;2024-03-23T14:31:02;6.93;79.03
71206;SHT31;58935;54.498;18.544;2024-03-23T14:33:36;6.95;79.04
71206;SHT31;58935;54.498;18.544;2024-03-23T14:36:03;6.96;78.95
71206;SHT31;58935;54.498;18.544;2024-03-23T14:38:29;7.00;78.94
71206;SHT31;58935;54.498;18.544;2024-03-23T14:40:58;7.02;78.92
71206;SHT31;58935;54.498;18.544;2024-03-23T14:43:26;7.01;78.78
71206;SHT31;58935;54.498;18.544;2024-03-23T14:48:28;7.01;78.71
71206;SHT31;58935;54.498;18.544;2024-03-23T14:50:56;6.99;78.65
71206;SHT31;58935;54.498;18.544;2024-03-23T14:53:24;6.97;78.72
71206;SHT31;58935;54.498;18.544;2024-03-23T14:55:50;6.97;78.72
71206;SHT31;58935;54.498;18.544;2024-03-23T14:58:15;6.98;78.66
71206;SHT31;58935;54.498;18.544;2024-03-23T15:00:41;6.99;78.57
71206;SHT31;58935;54.498;18.544;2024-03-23T15:03:08;6.97;78.51
71206;SHT31;58935;54.498;18.544;2024-03-23T15:05:36;6.96;78.57
71206;SHT31;58935;54.498;18.544;2024-03-23T15:08:02;6.98;78.64
71206;SHT31;58935;54.498;18.544;2024-03-23T15:10:28;6.99;78.61
71206;SHT31;58935;54.498;18.544;2024-03-23T15:12:53;6.96;78.56
71206;SHT31;58935;54.498;18.544;2024-03-23T15:15:21;6.95;78.43
71206;SHT31;58935;54.498;18.544;2024-03-23T15:17:46;6.93;78.33
71206;SHT31;58935;54.498;18.544;2024-03-23T15:20:12;6.91;78.44
71206;SHT31;58935;54.498;18.544;2024-03-23T15:22:40;6.94;78.64
71206;SHT31;58935;54.498;18.544;2024-03-23T15:25:07;6.98;78.72
71206;SHT31;58935;54.498;18.544;2024-03-23T15:27:33;7.05;78.68
71206;SHT31;58935;54.498;18.544;2024-03-23T15:29:59;7.11;78.63
71206;SHT31;58935;54.498;18.544;2024-03-23T15:32:27;7.13;78.21
71206;SHT31;58935;54.498;18.544;2024-03-23T15:34:52;7.13;78.10
71206;SHT31;58935;54.498;18.544;2024-03-23T15:37:17;7.11;78.01
71206;SHT31;58935;54.498;18.544;2024-03-23T15:39:43;7.08;77.92
71206;SHT31;58935;54.498;18.544;2024-03-23T15:42:08;7.06;77.96
71206;SHT31;58935;54.498;18.544;2024-03-23T15:44:33;7.04;77.91
71206;SHT31;58935;54.498;18.544;2024-03-23T15:46:58;7.02;77.99
71206;SHT31;58935;54.498;18.544;2024-03-23T15:49:24;7.03;78.07
71206;SHT31;58935;54.498;18.544;2024-03-23T15:51:49;7.01;78.08
71206;SHT31;58935;54.498;18.544;2024-03-23T15:54:14;6.99;78.09
71206;SHT31;58935;54.498;18.544;2024-03-23T15:56:40;6.98;78.17
71206;SHT31;58935;54.498;18.544;2024-03-23T15:59:07;6.99;78.42
71206;SHT31;58935;54.498;18.544;2024-03-23T16:01:33;6.99;78.34
71206;SHT31;58935;54.498;18.544;2024-03-23T16:04:02;6.99;78.38
71206;SHT31;58935;54.498;18.544;2024-03-23T16:06:28;7.01;78.56
71206;SHT31;58935;54.498;18.544;2024-03-23T16:08:58;7.03;78.59
71206;SHT31;58935;54.498;18.544;2024-03-23T16:11:24;7.07;78.66
71206;SHT31;58935;54.498;18.544;2024-03-23T16:13:52;7.12;78.12
71206;SHT31;58935;54.498;18.544;2024-03-23T16:16:17;7.14;76.24
71206;SHT31;58935;54.498;18.544;2024-03-23T16:18:49;7.17;75.22
71206;SHT31;58935;54.498;18.544;2024-03-23T16:21:15;7.21;73.49
71206;SHT31;58935;54.498;18.544;2024-03-23T16:23:44;7.21;71.50
71206;SHT31;58935;54.498;18.544;2024-03-23T16:26:11;7.23;70.76
71206;SHT31;58935;54.498;18.544;2024-03-23T16:28:37;7.23;70.00
71206;SHT31;58935;54.498;18.544;2024-03-23T16:31:06;7.24;69.61
71206;SHT31;58935;54.498;18.544;2024-03-23T16:33:34;7.26;69.69
71206;SHT31;58935;54.498;18.544;2024-03-23T16:36:03;7.27;69.27
71206;SHT31;58935;54.498;18.544;2024-03-23T16:38:34;7.29;69.43
71206;SHT31;58935;54.498;18.544;2024-03-23T16:41:04;7.32;69.62
71206;SHT31;58935;54.498;18.544;2024-03-23T16:43:33;7.34;69.47
71206;SHT31;58935;54.498;18.544;2024-03-23T16:46:01;7.37;69.48
71206;SHT31;58935;54.498;18.544;2024-03-23T16:48:30;7.39;69.44
71206;SHT31;58935;54.498;18.544;2024-03-23T16:50:57;7.41;69.11